Time;durP1;ratioP1;P1;durP2;ratioP2;P2;SDS_P1;SDS_P2;PMS_P1;PMS_P2;Temp;Humidity;BMP_temperature;BMP_pressure;BME280_temperature;BME280_humidity;BME280_pressure;Samples;Min_cycle;Max_cycle;Signal;HPM_P1;HPM_P2
2022/01/29 00:00:10;;;;;;;5.70;2.90;;;15.70;85.60;;;;;;1979564;29;20219;-78
2022/01/29 00:01:09;;;;;;;3.95;2.60;;;15.70;85.30;;;;;;1976984;29;20179;-79
2022/01/29 00:02:08;;;;;;;9.43;4.18;;;15.70;85.40;;;;;;1979168;29;20238;-80
2022/01/29 00:03:07;;;;;;;5.18;2.70;;;15.70;85.40;;;;;;1976964;29;20201;-78
2022/01/29 00:04:05;;;;;;;7.43;3.50;;;15.70;85.50;;;;;;1978964;29;20657;-79
2022/01/29 00:05:04;;;;;;;8.80;3.60;;;15.70;85.50;;;;;;1977402;29;20205;-79
2022/01/29 00:06:04;;;;;;;5.00;3.23;;;15.70;85.50;;;;;;1970403;29;20292;-80
2022/01/29 00:07:03;;;;;;;6.43;3.20;;;15.70;85.60;;;;;;1969457;29;20172;-79
2022/01/29 00:08:03;;;;;;;5.70;3.50;;;15.70;85.30;;;;;;1978082;29;20537;-79
2022/01/29 00:09:02;;;;;;;9.55;3.35;;;15.70;85.50;;;;;;1977835;29;20174;-78
2022/01/29 00:10:04;;;;;;;9.10;3.57;;;15.70;85.50;;;;;;1977500;29;20266;-79
2022/01/29 00:11:10;;;;;;;5.93;3.60;;;15.70;85.50;;;;;;1981343;29;20407;-78
2022/01/29 00:12:08;;;;;;;7.55;4.22;;;15.70;85.30;;;;;;1982095;29;20160;-78
2022/01/29 00:13:07;;;;;;;6.93;3.50;;;15.70;85.50;;;;;;1981860;29;20242;-80
2022/01/29 00:14:06;;;;;;;4.07;2.80;;;15.70;85.70;;;;;;1982097;29;20414;-80
2022/01/29 00:15:05;;;;;;;4.50;3.30;;;15.70;85.60;;;;;;1982034;29;20183;-79
2022/01/29 00:16:04;;;;;;;7.15;2.75;;;15.70;85.70;;;;;;1981904;29;20174;-78
2022/01/29 00:17:03;;;;;;;6.10;3.20;;;15.70;85.70;;;;;;1981987;29;20186;-79
2022/01/29 00:18:02;;;;;;;5.18;3.30;;;15.70;85.60;;;;;;1981944;29;20406;-79
2022/01/29 00:19:01;;;;;;;8.00;4.27;;;15.70;85.70;;;;;;1982101;29;20254;-80
2022/01/29 00:19:59;;;;;;;7.60;3.47;;;15.70;85.70;;;;;;1981911;29;20858;-79
2022/01/29 00:20:58;;;;;;;13.83;3.40;;;15.60;85.70;;;;;;1981903;29;20270;-78
2022/01/29 00:21:58;;;;;;;6.67;3.10;;;15.70;85.90;;;;;;1981950;29;20262;-79
2022/01/29 00:22:57;;;;;;;6.13;3.05;;;15.70;85.90;;;;;;1981904;29;20179;-78
2022/01/29 00:23:55;;;;;;;7.80;3.33;;;15.70;86.00;;;;;;1982180;29;20222;-78
2022/01/29 00:24:56;;;;;;;9.07;3.37;;;15.70;86.00;;;;;;1982075;29;20179;-80
2022/01/29 00:25:55;;;;;;;7.85;4.03;;;15.70;86.20;;;;;;1981892;29;20725;-79
2022/01/29 00:26:54;;;;;;;6.20;3.77;;;15.70;86.20;;;;;;1981948;29;20312;-80
2022/01/29 00:27:53;;;;;;;9.60;3.87;;;15.70;86.50;;;;;;1980978;28;20261;-79
2022/01/29 00:28:52;;;;;;;9.70;3.83;;;15.70;86.60;;;;;;1981986;29;20167;-81
2022/01/29 00:29:51;;;;;;;10.63;3.37;;;15.70;86.80;;;;;;1982048;29;20175;-79
2022/01/29 00:30:49;;;;;;;5.97;3.77;;;15.70;87.40;;;;;;1981914;29;20167;-78
2022/01/29 00:31:48;;;;;;;6.23;3.77;;;15.70;87.80;;;;;;1982156;29;20179;-78
2022/01/29 00:32:46;;;;;;;7.40;3.57;;;15.70;88.70;;;;;;1981941;29;20179;-82
2022/01/29 00:33:45;;;;;;;9.10;3.77;;;15.60;86.30;;;;;;1981797;29;20226;-79
2022/01/29 00:34:43;;;;;;;8.17;3.30;;;15.60;87.00;;;;;;1982026;29;20250;-79
2022/01/29 00:35:42;;;;;;;8.13;3.70;;;15.60;89.40;;;;;;1981890;29;20182;-81
2022/01/29 00:36:41;;;;;;;10.10;3.93;;;15.70;86.70;;;;;;1981846;29;20197;-80
2022/01/29 00:37:39;;;;;;;6.60;3.77;;;15.70;89.00;;;;;;1981888;29;20657;-79
2022/01/29 00:38:38;;;;;;;8.20;3.23;;;15.70;86.30;;;;;;1981900;29;20347;-78
2022/01/29 00:39:37;;;;;;;9.80;3.43;;;15.70;87.20;;;;;;1981832;29;20175;-80
2022/01/29 00:40:36;;;;;;;4.95;3.20;;;15.70;87.60;;;;;;1981858;29;20171;-78
2022/01/29 00:41:35;;;;;;;8.88;3.40;;;15.60;87.50;;;;;;1981895;29;20179;-79
2022/01/29 00:42:33;;;;;;;7.13;2.83;;;15.60;87.60;;;;;;1982058;29;20263;-76
2022/01/29 00:43:32;;;;;;;8.00;3.77;;;15.60;88.40;;;;;;1981829;29;20187;-80
2022/01/29 00:44:30;;;;;;;3.93;3.00;;;15.60;87.60;;;;;;1981995;29;20194;-78
2022/01/29 00:45:29;;;;;;;7.43;3.10;;;15.70;88.10;;;;;;1982294;29;20644;-78
2022/01/29 00:46:28;;;;;;;7.33;2.90;;;15.70;89.00;;;;;;1982114;29;20179;-80
2022/01/29 00:47:26;;;;;;;11.67;3.83;;;15.70;87.50;;;;;;1982458;29;20179;-79
2022/01/29 00:48:25;;;;;;;8.33;3.20;;;15.60;87.00;;;;;;1982475;29;20210;-79
2022/01/29 00:49:23;;;;;;;8.10;4.07;;;15.60;87.00;;;;;;1982294;29;20188;-78
2022/01/29 00:50:22;;;;;;;8.13;3.80;;;15.60;87.40;;;;;;1981984;29;20214;-79
2022/01/29 00:51:21;;;;;;;5.23;2.90;;;15.60;88.40;;;;;;1982054;29;20608;-78
2022/01/29 00:52:19;;;;;;;6.32;3.30;;;15.60;87.60;;;;;;1981948;29;20702;-78
2022/01/29 00:53:18;;;;;;;5.20;3.03;;;15.60;87.60;;;;;;1981732;29;20198;-78
2022/01/29 00:54:16;;;;;;;6.50;3.70;;;15.60;88.80;;;;;;1981779;29;20533;-79
2022/01/29 00:55:15;;;;;;;6.20;3.43;;;15.60;88.70;;;;;;1981669;29;20238;-79
2022/01/29 00:56:14;;;;;;;8.33;3.60;;;;;;;;;;1981827;29;20258;-79
2022/01/29 00:57:12;;;;;;;9.70;4.30;;;15.40;88.90;;;;;;1981876;29;20630;-79
2022/01/29 00:58:11;;;;;;;5.43;3.63;;;15.60;87.50;;;;;;1973463;29;20225;-79
2022/01/29 00:59:09;;;;;;;10.73;3.27;;;15.70;87.80;;;;;;1973589;29;20175;-79
2022/01/29 01:00:10;;;;;;;6.83;3.50;;;15.70;89.10;;;;;;1980605;29;20557;-79
2022/01/29 01:01:09;;;;;;;6.43;3.30;;;15.70;89.50;;;;;;1981209;29;20179;-81
2022/01/29 01:02:11;;;;;;;5.53;3.27;;;15.70;88.60;;;;;;1981754;29;20183;-79
2022/01/29 01:03:10;;;;;;;7.95;4.10;;;15.70;88.50;;;;;;1981574;29;20191;-79
2022/01/29 01:04:08;;;;;;;9.67;3.80;;;15.70;88.50;;;;;;1981730;29;20187;-79
2022/01/29 01:05:08;;;;;;;7.50;3.33;;;15.60;88.30;;;;;;1981751;29;20298;-79
2022/01/29 01:06:06;;;;;;;12.27;4.15;;;15.70;88.40;;;;;;1981758;29;20171;-78
2022/01/29 01:07:06;;;;;;;7.03;3.70;;;15.70;88.50;;;;;;1981652;29;20211;-79
2022/01/29 01:08:07;;;;;;;13.10;3.88;;;15.60;88.20;;;;;;1981626;29;20262;-80
2022/01/29 01:09:06;;;;;;;7.60;4.15;;;15.60;88.10;;;;;;1981789;29;20762;-79
2022/01/29 01:10:06;;;;;;;10.00;3.50;;;15.60;87.70;;;;;;1981561;29;20249;-79
2022/01/29 01:11:04;;;;;;;6.18;3.72;;;15.60;87.80;;;;;;1981527;29;20665;-80
2022/01/29 01:12:04;;;;;;;7.33;3.67;;;15.70;87.90;;;;;;1981941;29;20171;-79
2022/01/29 01:13:02;;;;;;;5.25;3.47;;;15.60;87.70;;;;;;1981727;29;20187;-78
2022/01/29 01:14:01;;;;;;;9.37;4.83;;;15.60;88.30;;;;;;1981891;29;20178;-79
2022/01/29 01:14:59;;;;;;;7.00;3.83;;;15.70;87.80;;;;;;1981778;29;20246;-78
2022/01/29 01:15:58;;;;;;;9.33;4.37;;;15.70;87.60;;;;;;1981988;29;20230;-79
2022/01/29 01:16:56;;;;;;;7.00;3.90;;;15.60;87.60;;;;;;1982123;29;20233;-80
2022/01/29 01:17:55;;;;;;;9.53;3.87;;;15.70;87.60;;;;;;1981750;29;20634;-81
2022/01/29 01:18:53;;;;;;;8.30;4.23;;;15.60;87.30;;;;;;1982044;29;20218;-78
2022/01/29 01:19:52;;;;;;;8.17;3.80;;;15.60;87.60;;;;;;1981875;29;20179;-79
2022/01/29 01:20:51;;;;;;;8.20;4.00;;;15.60;87.70;;;;;;1981837;29;20556;-81
2022/01/29 01:21:49;;;;;;;8.63;4.00;;;15.60;88.10;;;;;;1981928;29;20183;-79
2022/01/29 01:22:48;;;;;;;7.77;4.57;;;15.60;88.10;;;;;;1981657;29;20761;-80
2022/01/29 01:23:46;;;;;;;5.53;3.40;;;15.60;88.40;;;;;;1981243;29;20544;-79
2022/01/29 01:24:47;;;;;;;8.07;3.80;;;15.60;88.60;;;;;;1981615;29;20171;-79
2022/01/29 01:25:45;;;;;;;5.03;3.05;;;15.60;88.90;;;;;;1981473;29;20226;-78
2022/01/29 01:26:44;;;;;;;6.50;4.17;;;15.60;88.90;;;;;;1981468;29;20648;-79
2022/01/29 01:27:43;;;;;;;7.07;3.20;;;15.60;89.00;;;;;;1980872;29;20178;-79
2022/01/29 01:28:41;;;;;;;6.83;3.23;;;15.60;89.20;;;;;;1980979;29;20403;-78
2022/01/29 01:29:40;;;;;;;6.93;4.20;;;15.60;88.90;;;;;;1981501;29;20593;-79
2022/01/29 01:30:39;;;;;;;6.33;3.63;;;15.60;88.90;;;;;;1981463;29;20163;-78
2022/01/29 01:31:39;;;;;;;6.33;3.77;;;15.60;88.80;;;;;;1973212;29;20460;-77
2022/01/29 01:32:38;;;;;;;4.82;3.53;;;15.60;88.50;;;;;;1973274;29;20172;-78
2022/01/29 01:33:36;;;;;;;9.53;3.90;;;15.60;88.40;;;;;;1981106;29;20305;-79
2022/01/29 01:34:38;;;;;;;6.17;3.87;;;15.60;88.40;;;;;;1981480;29;20395;-80
2022/01/29 01:35:45;;;;;;;8.38;4.45;;;15.60;88.40;;;;;;1981394;29;20178;-78
2022/01/29 01:36:49;;;;;;;5.35;3.70;;;15.60;88.60;;;;;;1981469;29;20152;-80
2022/01/29 01:37:57;;;;;;;6.93;3.40;;;15.60;88.70;;;;;;1981510;29;20226;-79
2022/01/29 01:39:03;;;;;;;5.32;3.10;;;15.60;88.90;;;;;;1981380;28;20229;-79
2022/01/29 01:40:03;;;;;;;8.57;3.80;;;15.60;89.10;;;;;;1981480;29;20183;-80
2022/01/29 01:41:06;;;;;;;6.50;3.20;;;15.60;89.00;;;;;;1981282;29;20199;-79
2022/01/29 01:42:07;;;;;;;10.15;4.95;;;15.60;89.20;;;;;;1973134;29;20172;-81
2022/01/29 01:43:05;;;;;;;7.43;4.03;;;15.60;89.10;;;;;;1973032;29;20263;-77
2022/01/29 01:44:04;;;;;;;7.03;3.50;;;15.60;89.10;;;;;;1981227;29;20241;-80
2022/01/29 01:45:03;;;;;;;3.93;3.03;;;15.60;89.40;;;;;;1980640;29;20250;-78
2022/01/29 01:46:02;;;;;;;9.02;3.80;;;15.60;89.80;;;;;;1981251;29;20403;-80
2022/01/29 01:47:01;;;;;;;4.63;3.10;;;15.60;90.00;;;;;;1981470;29;20174;-79
2022/01/29 01:48:04;;;;;;;5.37;3.50;;;15.60;89.80;;;;;;1981335;29;20183;-78
2022/01/29 01:49:03;;;;;;;5.78;3.78;;;15.50;89.80;;;;;;1981466;29;20217;-81
2022/01/29 01:50:03;;;;;;;7.40;4.13;;;15.50;89.90;;;;;;1981396;29;20175;-78
2022/01/29 01:51:01;;;;;;;7.10;4.00;;;15.60;90.10;;;;;;1981251;29;20642;-80
2022/01/29 01:52:00;;;;;;;8.93;4.47;;;15.50;90.00;;;;;;1981359;29;20202;-77
2022/01/29 01:52:59;;;;;;;7.03;3.53;;;15.50;90.00;;;;;;1973150;29;20259;-79
2022/01/29 01:53:58;;;;;;;5.87;3.60;;;15.60;90.20;;;;;;1973097;29;20172;-79
2022/01/29 01:54:56;;;;;;;6.00;4.03;;;15.50;90.20;;;;;;1980286;29;20457;-80
2022/01/29 01:55:55;;;;;;;6.13;3.77;;;15.50;89.90;;;;;;1980843;29;20210;-79
2022/01/29 01:56:53;;;;;;;7.73;4.20;;;15.50;87.60;;;;;;1973556;29;20179;-78
2022/01/29 01:57:52;;;;;;;9.40;4.13;;;15.50;88.00;;;;;;1965442;29;20185;-79
2022/01/29 01:58:51;;;;;;;5.15;3.55;;;15.50;88.20;;;;;;1972528;29;20266;-79
2022/01/29 01:59:49;;;;;;;5.13;3.23;;;15.60;88.70;;;;;;1972979;29;20180;-79
2022/01/29 02:00:48;;;;;;;5.00;3.03;;;15.50;88.90;;;;;;1980730;29;20179;-77
2022/01/29 02:01:47;;;;;;;5.73;3.57;;;15.50;88.90;;;;;;1981331;29;20677;-76
2022/01/29 02:02:45;;;;;;;6.50;3.90;;;15.50;88.70;;;;;;1981331;28;20200;-78
2022/01/29 02:03:45;;;;;;;7.97;4.30;;;15.50;89.00;;;;;;1981364;29;20399;-80
2022/01/29 02:04:43;;;;;;;11.02;5.13;;;15.50;89.20;;;;;;1981378;29;20167;-78
2022/01/29 02:05:44;;;;;;;8.33;4.20;;;15.50;89.00;;;;;;1981158;29;20262;-78
2022/01/29 02:06:43;;;;;;;7.75;4.25;;;15.50;88.60;;;;;;1981285;29;20213;-79
2022/01/29 02:07:43;;;;;;;7.00;4.00;;;15.50;88.80;;;;;;1981262;29;20288;-79
2022/01/29 02:08:41;;;;;;;5.78;3.90;;;15.50;89.00;;;;;;1981182;29;20418;-78
2022/01/29 02:09:40;;;;;;;5.20;3.70;;;15.50;88.70;;;;;;1981205;29;20198;-78
2022/01/29 02:10:38;;;;;;;5.97;4.00;;;15.50;89.20;;;;;;1981335;29;20265;-78
2022/01/29 02:11:47;;;;;;;6.27;4.30;;;15.50;88.70;;;;;;1981327;29;20175;-79
2022/01/29 02:12:54;;;;;;;9.13;4.40;;;15.50;88.20;;;;;;1981286;28;20159;-80
2022/01/29 02:13:55;;;;;;;8.43;4.38;;;15.50;88.40;;;;;;1981341;29;20163;-81
2022/01/29 02:14:56;;;;;;;8.43;3.55;;;15.50;88.80;;;;;;1981381;29;20299;-79
2022/01/29 02:15:55;;;;;;;4.43;3.15;;;15.50;89.30;;;;;;1981844;29;20257;-79
2022/01/29 02:16:54;;;;;;;5.80;3.50;;;15.50;89.70;;;;;;1981509;29;20171;-80
2022/01/29 02:17:53;;;;;;;6.78;3.88;;;15.60;89.90;;;;;;1981383;29;20175;-79
2022/01/29 02:18:51;;;;;;;8.00;4.40;;;15.50;89.30;;;;;;1981315;29;20516;-77
2022/01/29 02:19:50;;;;;;;5.37;3.60;;;15.60;88.60;;;;;;1981662;29;20178;-79
2022/01/29 02:20:49;;;;;;;5.70;3.90;;;15.50;88.40;;;;;;1981555;29;20210;-77
2022/01/29 02:21:48;;;;;;;5.40;3.35;;;15.50;88.10;;;;;;1981643;29;20693;-79
2022/01/29 02:22:46;;;;;;;7.40;3.57;;;15.50;87.80;;;;;;1981470;28;20182;-79
2022/01/29 02:23:45;;;;;;;5.20;3.70;;;15.50;88.00;;;;;;1981670;29;20167;-78
2022/01/29 02:24:43;;;;;;;4.50;3.50;;;15.50;87.90;;;;;;1981565;29;20668;-80
2022/01/29 02:25:44;;;;;;;7.33;3.80;;;15.50;88.00;;;;;;1981568;29;20203;-79
2022/01/29 02:26:43;;;;;;;7.97;4.05;;;15.50;88.00;;;;;;1981572;29;20175;-79
2022/01/29 02:27:41;;;;;;;9.23;3.90;;;15.50;88.00;;;;;;1981707;29;20171;-80
2022/01/29 02:28:40;;;;;;;5.80;4.10;;;15.50;88.00;;;;;;1981692;29;20178;-78
2022/01/29 02:29:38;;;;;;;6.27;4.03;;;15.40;88.00;;;;;;1972783;29;20176;-81
2022/01/29 02:30:39;;;;;;;8.43;4.70;;;15.50;88.50;;;;;;1973088;29;20227;-79
2022/01/29 02:32:05;;;;;;;6.03;4.10;;;15.40;88.60;;;;;;1980973;29;20175;-79
2022/01/29 02:33:06;;;;;;;6.82;3.85;;;15.50;88.80;;;;;;1976698;28;20199;-78
2022/01/29 02:34:05;;;;;;;6.05;3.85;;;15.40;88.90;;;;;;1980956;29;20214;-79
2022/01/29 02:35:04;;;;;;;5.43;3.53;;;15.50;88.90;;;;;;1981072;29;20174;-77
2022/01/29 02:36:03;;;;;;;7.27;4.00;;;15.50;88.70;;;;;;1981283;29;20252;-81
2022/01/29 02:37:01;;;;;;;4.80;3.83;;;15.50;88.90;;;;;;1981054;29;20172;-79
2022/01/29 02:38:00;;;;;;;3.90;3.50;;;15.50;88.60;;;;;;1981189;29;20407;-79
2022/01/29 02:38:59;;;;;;;11.90;3.70;;;15.50;88.70;;;;;;1980464;29;20182;-79
2022/01/29 02:39:58;;;;;;;4.93;3.75;;;15.40;88.40;;;;;;1980459;29;20588;-79
2022/01/29 02:41:03;;;;;;;5.13;3.77;;;15.50;88.70;;;;;;1981089;29;20183;-80
2022/01/29 02:42:02;;;;;;;5.32;3.50;;;15.50;88.80;;;;;;1981130;29;20148;-77
2022/01/29 02:43:15;;;;;;;7.97;4.75;;;15.50;88.60;;;;;;1981104;28;20199;-79
2022/01/29 02:44:19;;;;;;;6.28;4.25;;;15.50;88.80;;;;;;1972875;29;20171;-80
2022/01/29 02:45:18;;;;;;;6.15;4.50;;;15.50;89.00;;;;;;1973033;29;20184;-79
2022/01/29 02:47:29;;;;;;;5.82;4.05;;;15.40;89.30;;;;;;1980594;29;20174;-80
2022/01/29 02:48:27;;;;;;;11.35;4.53;;;15.50;89.30;;;;;;1972888;29;20701;-80
2022/01/29 02:49:26;;;;;;;8.20;4.10;;;15.50;89.30;;;;;;1980461;29;20451;-81
2022/01/29 02:50:25;;;;;;;5.67;4.07;;;15.40;89.40;;;;;;1980747;28;20698;-78
2022/01/29 02:51:24;;;;;;;6.93;4.33;;;15.50;89.50;;;;;;1982130;29;20505;-80
2022/01/29 02:52:22;;;;;;;6.57;3.75;;;15.50;90.00;;;;;;1982733;29;20546;-77
2022/01/29 02:53:21;;;;;;;5.60;3.70;;;15.50;90.10;;;;;;1982756;28;20269;-79
2022/01/29 02:54:20;;;;;;;6.20;4.10;;;15.60;90.20;;;;;;1982592;29;20612;-77
2022/01/29 02:55:19;;;;;;;8.95;4.63;;;15.50;90.20;;;;;;1982548;29;20206;-78
2022/01/29 02:56:17;;;;;;;8.00;5.03;;;15.50;90.40;;;;;;1982616;29;20180;-79
2022/01/29 02:57:18;;;;;;;8.83;4.47;;;15.50;90.40;;;;;;1982673;29;20242;-78
2022/01/29 02:58:16;;;;;;;7.47;4.10;;;15.40;90.30;;;;;;1982663;29;20167;-78
2022/01/29 02:59:15;;;;;;;7.60;4.00;;;15.50;90.30;;;;;;1982138;29;20211;-81
2022/01/29 03:00:14;;;;;;;8.50;3.50;;;15.50;90.20;;;;;;1981995;29;20213;-80
2022/01/29 03:01:13;;;;;;;5.13;3.37;;;15.50;88.60;;;;;;1974713;29;20442;-79
2022/01/29 03:02:11;;;;;;;5.77;4.30;;;15.50;87.90;;;;;;1982167;29;20197;-80
2022/01/29 03:03:10;;;;;;;6.00;4.13;;;15.50;87.80;;;;;;1982502;28;20433;-78
2022/01/29 03:04:09;;;;;;;6.53;4.53;;;15.40;87.80;;;;;;1982411;29;20186;-80
2022/01/29 03:05:07;;;;;;;8.50;4.33;;;15.40;88.00;;;;;;1982479;29;20591;-80
2022/01/29 03:06:10;;;;;;;6.17;3.60;;;15.50;88.00;;;;;;1982593;29;20410;-79
2022/01/29 03:07:08;;;;;;;4.80;3.80;;;15.50;88.00;;;;;;1982463;29;20167;-78
2022/01/29 03:08:07;;;;;;;4.20;3.23;;;15.50;88.20;;;;;;1982757;29;20648;-80
2022/01/29 03:09:08;;;;;;;8.50;3.73;;;15.50;88.20;;;;;;1982481;29;20210;-80
2022/01/29 03:10:07;;;;;;;5.47;3.80;;;15.50;88.10;;;;;;1982543;29;20171;-79
2022/01/29 03:11:05;;;;;;;6.60;4.13;;;15.40;88.10;;;;;;1981891;29;20282;-78
2022/01/29 03:12:04;;;;;;;6.50;3.77;;;15.50;88.10;;;;;;1982065;29;20187;-81
2022/01/29 03:13:03;;;;;;;4.77;3.43;;;15.50;87.90;;;;;;1982432;28;20214;-80
2022/01/29 03:14:02;;;;;;;4.97;3.77;;;15.50;88.10;;;;;;1982568;29;20739;-79
2022/01/29 03:15:01;;;;;;;7.22;4.40;;;15.50;87.70;;;;;;1982577;29;20887;-80
2022/01/29 03:15:59;;;;;;;7.57;4.67;;;15.50;88.00;;;;;;1982462;29;20183;-78
2022/01/29 03:16:58;;;;;;;5.93;3.47;;;15.50;87.60;;;;;;1982528;29;20167;-79
2022/01/29 03:17:56;;;;;;;6.23;4.50;;;15.50;87.80;;;;;;1982463;29;20274;-79
2022/01/29 03:18:56;;;;;;;5.67;3.80;;;15.50;87.70;;;;;;1982530;29;20315;-78
2022/01/29 03:19:55;;;;;;;5.15;3.63;;;15.50;87.80;;;;;;1982453;29;20171;-79
2022/01/29 03:20:53;;;;;;;7.20;3.83;;;15.40;87.70;;;;;;1974170;29;20183;-80
2022/01/29 03:21:52;;;;;;;6.83;3.60;;;15.40;87.70;;;;;;1974247;29;20553;-79
2022/01/29 03:22:50;;;;;;;7.00;4.07;;;15.40;87.60;;;;;;1981891;28;20186;-79
2022/01/29 03:23:49;;;;;;;5.97;4.00;;;15.40;87.80;;;;;;1982442;29;20234;-79
2022/01/29 03:24:47;;;;;;;5.63;3.90;;;15.40;88.40;;;;;;1982590;29;20222;-79
2022/01/29 03:25:46;;;;;;;6.90;4.00;;;15.40;88.30;;;;;;1981763;29;20195;-79
2022/01/29 03:26:44;;;;;;;5.90;3.40;;;15.40;88.10;;;;;;1981922;29;20560;-80
2022/01/29 03:27:43;;;;;;;5.73;4.23;;;15.40;88.10;;;;;;1982531;29;20203;-81
2022/01/29 03:28:41;;;;;;;7.80;3.70;;;15.50;88.30;;;;;;1982422;29;20233;-78
2022/01/29 03:29:40;;;;;;;5.70;3.83;;;15.40;88.30;;;;;;1982447;29;20186;-77
2022/01/29 03:30:38;;;;;;;4.23;3.50;;;15.50;89.00;;;;;;1982416;29;20182;-81
2022/01/29 03:31:37;;;;;;;6.53;3.63;;;15.50;89.20;;;;;;1982353;29;20183;-79
2022/01/29 03:32:35;;;;;;;4.83;3.67;;;15.50;89.20;;;;;;1982424;29;20215;-77
2022/01/29 03:33:34;;;;;;;6.43;3.57;;;15.50;90.50;;;;;;1982031;28;20195;-79
2022/01/29 03:34:33;;;;;;;7.50;4.20;;;15.40;88.70;;;;;;1982297;29;20175;-79
2022/01/29 03:35:32;;;;;;;4.50;3.60;;;15.40;88.50;;;;;;1982356;29;20419;-78
2022/01/29 03:36:31;;;;;;;4.97;3.23;;;15.40;88.90;;;;;;1982321;29;20461;-77
2022/01/29 03:37:29;;;;;;;4.40;3.30;;;15.50;89.90;;;;;;1982472;29;20185;-78
2022/01/29 03:38:28;;;;;;;5.77;4.17;;;15.40;90.10;;;;;;1982317;29;20190;-78
2022/01/29 03:39:28;;;;;;;5.37;3.50;;;15.40;90.30;;;;;;1981686;29;20382;-77
2022/01/29 03:40:26;;;;;;;7.20;4.30;;;15.40;89.70;;;;;;1981651;29;20179;-80
2022/01/29 03:41:25;;;;;;;4.87;3.40;;;15.40;89.70;;;;;;1974483;29;20531;-78
2022/01/29 03:42:24;;;;;;;4.57;3.90;;;15.40;89.90;;;;;;1981845;29;20206;-77
2022/01/29 03:43:30;;;;;;;4.47;3.47;;;15.40;88.90;;;;;;1982316;28;20191;-79
2022/01/29 03:44:28;;;;;;;5.93;3.83;;;15.40;88.20;;;;;;1982418;29;20380;-78
2022/01/29 03:45:27;;;;;;;7.40;3.97;;;15.40;87.80;;;;;;1982075;29;20218;-78
2022/01/29 03:46:25;;;;;;;5.40;3.97;;;15.40;87.60;;;;;;1982319;29;20213;-80
2022/01/29 03:47:24;;;;;;;5.00;3.50;;;15.40;87.60;;;;;;1982178;29;20270;-78
2022/01/29 03:48:23;;;;;;;3.73;3.37;;;15.40;87.70;;;;;;1981693;29;20265;-77
2022/01/29 03:49:21;;;;;;;4.60;3.70;;;15.40;87.80;;;;;;1981652;29;20734;-80
2022/01/29 03:50:20;;;;;;;7.50;3.53;;;15.40;87.60;;;;;;1982231;29;20859;-79
2022/01/29 03:51:19;;;;;;;5.43;3.90;;;15.40;87.70;;;;;;1982214;29;20179;-79
2022/01/29 03:52:17;;;;;;;5.57;3.73;;;15.40;88.00;;;;;;1982133;29;20410;-79
2022/01/29 03:53:16;;;;;;;5.40;3.97;;;15.40;88.10;;;;;;1982276;28;20254;-79
2022/01/29 03:54:14;;;;;;;4.70;3.67;;;15.40;87.90;;;;;;1982211;29;20178;-79
2022/01/29 03:55:13;;;;;;;7.10;4.03;;;15.40;87.80;;;;;;1982372;29;20250;-79
2022/01/29 03:56:12;;;;;;;5.90;4.10;;;15.40;87.60;;;;;;1981566;29;20182;-78
2022/01/29 03:57:10;;;;;;;8.07;3.80;;;15.50;87.20;;;;;;1981605;29;20171;-80
2022/01/29 03:58:09;;;;;;;4.73;3.13;;;15.50;87.10;;;;;;1982127;29;20259;-78
2022/01/29 03:59:07;;;;;;;5.77;4.07;;;15.40;86.80;;;;;;1982183;29;20186;-79
2022/01/29 04:00:06;;;;;;;5.67;4.33;;;15.40;86.80;;;;;;1982184;29;20234;-78
2022/01/29 04:01:05;;;;;;;8.23;4.70;;;15.40;86.80;;;;;;1982138;29;20179;-79
2022/01/29 04:02:03;;;;;;;3.17;2.87;;;15.40;87.40;;;;;;1982076;28;20223;-79
2022/01/29 04:03:02;;;;;;;6.67;4.30;;;15.40;88.00;;;;;;1982048;28;20532;-80
2022/01/29 04:04:00;;;;;;;6.07;3.90;;;15.40;88.10;;;;;;1982230;29;20171;-77
2022/01/29 04:04:59;;;;;;;5.33;3.40;;;15.40;88.10;;;;;;1982070;29;20251;-79
2022/01/29 04:05:58;;;;;;;4.03;3.10;;;15.40;87.90;;;;;;1982159;29;20221;-77
2022/01/29 04:07:04;;;;;;;5.38;3.63;;;15.40;88.10;;;;;;1982059;29;20175;-78
2022/01/29 04:08:06;;;;;;;5.78;3.78;;;15.50;87.70;;;;;;1982136;29;20160;-79
2022/01/29 04:09:09;;;;;;;4.05;3.45;;;15.50;88.10;;;;;;1982291;29;20170;-80
2022/01/29 04:10:08;;;;;;;4.90;3.53;;;15.40;88.40;;;;;;1982035;29;20182;-79
2022/01/29 04:11:10;;;;;;;5.20;3.40;;;15.40;89.10;;;;;;1982147;29;20175;-78
2022/01/29 04:12:09;;;;;;;5.28;3.53;;;15.40;88.60;;;;;;1981323;29;20176;-78
2022/01/29 04:13:10;;;;;;;6.53;3.73;;;15.40;89.50;;;;;;1981585;28;20277;-80
2022/01/29 04:14:15;;;;;;;4.43;3.80;;;15.40;89.80;;;;;;1982511;29;20403;-80
2022/01/29 04:15:14;;;;;;;5.15;3.60;;;15.40;90.50;;;;;;1982654;29;20219;-79
2022/01/29 04:16:14;;;;;;;4.60;3.50;;;15.40;88.90;;;;;;1982595;29;20215;-80
2022/01/29 04:17:12;;;;;;;5.60;3.38;;;15.40;88.50;;;;;;1982424;29;20186;-81
2022/01/29 04:18:11;;;;;;;3.77;3.27;;;15.40;89.40;;;;;;1981899;29;20183;-80
2022/01/29 04:19:09;;;;;;;4.73;3.30;;;15.40;89.40;;;;;;1981905;29;20182;-79
2022/01/29 04:20:08;;;;;;;4.80;3.43;;;15.40;87.20;;;;;;1982150;29;20646;-80
2022/01/29 04:21:07;;;;;;;7.10;3.50;;;15.40;88.40;;;;;;1982191;29;20171;-80
2022/01/29 04:22:06;;;;;;;5.10;3.20;;;15.40;88.30;;;;;;1982330;29;20183;-80
2022/01/29 04:23:06;;;;;;;5.35;3.33;;;15.40;91.60;;;;;;1982608;28;20214;-80
2022/01/29 04:24:05;;;;;;;5.68;3.33;;;15.40;87.30;;;;;;1982237;29;20180;-81
2022/01/29 04:25:04;;;;;;;6.27;3.47;;;15.40;88.40;;;;;;1982460;29;20179;-81
2022/01/29 04:26:04;;;;;;;6.10;3.73;;;15.40;89.70;;;;;;1982386;29;20612;-81
2022/01/29 04:27:09;;;;;;;3.80;2.70;;;15.40;90.50;;;;;;1982145;29;20402;-79
2022/01/29 04:28:11;;;;;;;4.38;3.10;;;15.40;89.30;;;;;;1982288;29;20164;-80
2022/01/29 04:29:09;;;;;;;4.68;3.20;;;15.40;89.50;;;;;;1982211;29;20168;-80
2022/01/29 04:30:32;;;;;;;5.00;3.53;;;15.40;88.70;;;;;;1982242;29;20626;-79
2022/01/29 04:31:36;;;;;;;4.70;3.08;;;15.40;87.80;;;;;;1981787;29;20197;-78
2022/01/29 04:33:39;;;;;;;3.30;2.90;;;15.30;88.70;;;;;;1982251;29;20279;-79
2022/01/29 04:34:37;;;;;;;6.60;3.27;;;15.40;90.00;;;;;;1982030;29;20172;-78
2022/01/29 04:35:36;;;;;;;4.33;3.27;;;15.40;89.70;;;;;;1981988;29;20187;-79
2022/01/29 04:36:34;;;;;;;5.33;3.57;;;15.40;90.40;;;;;;1981972;29;20187;-78
2022/01/29 04:37:33;;;;;;;4.40;3.33;;;15.40;89.40;;;;;;1981868;29;20197;-80
2022/01/29 04:38:32;;;;;;;4.73;3.37;;;15.40;90.10;;;;;;1982088;29;20211;-80
2022/01/29 04:39:31;;;;;;;7.03;3.90;;;15.30;91.10;;;;;;1981894;29;20583;-79
2022/01/29 04:40:29;;;;;;;5.87;4.10;;;15.30;85.10;;;;;;1981874;29;20421;-80
2022/01/29 04:41:28;;;;;;;6.07;3.40;;;15.40;85.70;;;;;;1982067;29;20461;-79
2022/01/29 04:42:26;;;;;;;4.30;3.37;;;15.40;85.50;;;;;;1981899;29;20183;-80
2022/01/29 04:43:25;;;;;;;6.17;3.80;;;15.30;85.30;;;;;;1981776;28;20559;-79
2022/01/29 04:44:23;;;;;;;6.80;2.67;;;15.30;85.30;;;;;;1981932;29;20332;-80
2022/01/29 04:45:22;;;;;;;5.20;3.53;;;15.40;85.50;;;;;;1981787;29;20290;-79
2022/01/29 04:46:20;;;;;;;5.27;3.13;;;15.40;85.40;;;;;;1982550;29;20539;-79
2022/01/29 04:47:19;;;;;;;5.33;3.63;;;15.40;85.20;;;;;;1982831;29;20603;-79
2022/01/29 04:48:17;;;;;;;6.00;3.23;;;15.30;85.20;;;;;;1982836;29;20262;-79
2022/01/29 04:49:16;;;;;;;4.43;2.93;;;15.40;85.50;;;;;;1982667;29;20171;-79
2022/01/29 04:50:14;;;;;;;6.10;4.30;;;15.40;85.50;;;;;;1982497;29;20282;-79
2022/01/29 04:51:13;;;;;;;4.77;3.27;;;15.40;85.70;;;;;;1982240;29;20183;-79
2022/01/29 04:52:11;;;;;;;4.90;3.40;;;15.40;85.60;;;;;;1981906;29;20710;-79
2022/01/29 04:53:10;;;;;;;4.30;3.13;;;15.40;85.70;;;;;;1982257;28;20191;-78
2022/01/29 04:54:08;;;;;;;4.83;3.67;;;15.40;85.60;;;;;;1982022;29;20175;-78
2022/01/29 04:55:08;;;;;;;4.83;3.20;;;15.30;85.40;;;;;;1981970;29;20175;-79
2022/01/29 04:56:07;;;;;;;5.18;3.40;;;15.40;85.60;;;;;;1981820;29;20244;-79
2022/01/29 04:57:06;;;;;;;7.55;3.35;;;15.40;85.70;;;;;;1981759;29;20194;-78
2022/01/29 04:58:04;;;;;;;5.00;3.33;;;15.30;85.40;;;;;;1981718;29;20564;-80
2022/01/29 04:59:03;;;;;;;3.83;3.50;;;15.40;85.60;;;;;;1981836;29;20403;-78
2022/01/29 05:00:03;;;;;;;5.50;3.70;;;15.40;85.40;;;;;;1981702;29;20270;-76
2022/01/29 05:01:03;;;;;;;2.88;2.40;;;15.40;85.50;;;;;;1981588;29;20175;-78
2022/01/29 05:02:03;;;;;;;4.00;2.80;;;15.40;85.40;;;;;;1981680;29;20234;-78
2022/01/29 05:03:11;;;;;;;3.70;2.90;;;15.40;85.60;;;;;;1981746;28;20201;-78
2022/01/29 05:04:09;;;;;;;5.70;3.25;;;15.40;85.40;;;;;;1981717;29;20155;-80
2022/01/29 05:05:08;;;;;;;5.87;2.73;;;15.40;85.50;;;;;;1981747;29;20167;-79
2022/01/29 05:06:09;;;;;;;6.17;3.93;;;15.40;85.40;;;;;;1981498;29;20175;-77
2022/01/29 05:07:08;;;;;;;3.88;3.30;;;15.40;85.50;;;;;;1981740;29;20273;-79
2022/01/29 05:08:07;;;;;;;4.07;3.20;;;15.30;85.40;;;;;;1981653;29;20195;-79
2022/01/29 05:09:08;;;;;;;3.77;3.03;;;15.40;85.40;;;;;;1981788;29;20175;-79
2022/01/29 05:10:07;;;;;;;4.10;2.58;;;15.40;85.40;;;;;;1981611;29;20410;-79
2022/01/29 05:11:07;;;;;;;4.03;3.23;;;15.40;85.40;;;;;;1981602;29;20190;-79
2022/01/29 05:12:07;;;;;;;6.25;3.38;;;15.40;85.50;;;;;;1981635;29;20946;-78